Winkler County Airport
KINK : rendu visible

Aérodrome :











RETROUVEZ-NOUS SUR...

 
LOGIN :

S'inscrire | Disclaimer

   EN    FR    IT 

 









Légende :    VFR   VFR Marginal   IFR   IFR Intensif   IFR Très Intensif
Visi : 
Plafond : 
>= 8 km
>= 3000ft
5 à 8 km
1000 à 3000 ft
1500m à 5 km
500 à 1000 ft
800 à 1500m
200 à 500 ft
< 800m
< 200 ft
Symboles :   Orages  Brouillard  Fortes neiges  Fortes précipitations  Vent > 20 kt






- Altitude de l'aérodrome : 2822 ft


KINK - Winkler County

DERNIER METAR :
  • 282153Z AUTO 06019G26KT 10SM CLR 33/04 A3002 RMK AO2 PK WND 04029/2106 SLP119 T03330044 $

METARs EXPIRÉS :
  • 282053Z AUTO 05015G25KT 10SM CLR 33/07 A3003 RMK AO2 SLP120 T03330067 56008 $
  • 281953Z AUTO 07013G21KT 10SM FEW110 32/08 A3003 RMK AO2 SLP123 T03220083 $

TAF KINK
Valide du 28 à 18h jusqu'au 29 à 18h UTC


281808Z 2818/2918 08010G18KT P6SM BKN150
FM282000 08015G22KT P6SM FEW090 BKN150
FM290100 09008KT P6SM SKC
FIR KZFW / Amérique du Nord



MET'MAP, la Météo Aéronautique d'un coup d'oeil ! - Copyright ORBIFLY Décembre 2007 - Disclaimer

ORBIFLY MET'MAP TEAM :

Programmation & Développement : Alexandra Zaïnal
Sur une idée originale de : Baudouin d'Aumeries
Assistance à la programmation : Marc-Olivier Méhu
Soutien technique & logistique : Manuel Goepfert

Contact : metmap@orbifly.com




SOURCES & CREDITS :

   NOAA       Earth
Advisory